sensor_id;sensor_type;location;lat;lon;timestamp;P1;durP1;ratioP1;P2;durP2;ratioP2
41653;SDS011;68687;52.030;7.110;2023-04-24T00:00:45;8.00;;;7.20;;
41653;SDS011;68687;52.030;7.110;2023-04-24T00:03:10;10.20;;;7.80;;
41653;SDS011;68687;52.030;7.110;2023-04-24T00:05:37;11.18;;;7.60;;
41653;SDS011;68687;52.030;7.110;2023-04-24T00:08:05;8.55;;;7.65;;
41653;SDS011;68687;52.030;7.110;2023-04-24T00:10:31;9.55;;;7.65;;
41653;SDS011;68687;52.030;7.110;2023-04-24T00:12:56;8.73;;;7.53;;
41653;SDS011;68687;52.030;7.110;2023-04-24T00:15:21;8.18;;;7.30;;
41653;SDS011;68687;52.030;7.110;2023-04-24T00:17:50;9.98;;;7.70;;
41653;SDS011;68687;52.030;7.110;2023-04-24T00:20:15;9.85;;;6.78;;
41653;SDS011;68687;52.030;7.110;2023-04-24T00:22:40;9.60;;;8.25;;
41653;SDS011;68687;52.030;7.110;2023-04-24T00:25:06;11.07;;;8.70;;
41653;SDS011;68687;52.030;7.110;2023-04-24T00:27:34;11.90;;;9.73;;
41653;SDS011;68687;52.030;7.110;2023-04-24T00:30:01;12.50;;;10.18;;
41653;SDS011;68687;52.030;7.110;2023-04-24T00:32:27;16.20;;;11.27;;
41653;SDS011;68687;52.030;7.110;2023-04-24T00:34:58;11.80;;;9.98;;
41653;SDS011;68687;52.030;7.110;2023-04-24T00:37:24;17.20;;;11.50;;
41653;SDS011;68687;52.030;7.110;2023-04-24T00:39:49;10.35;;;7.80;;
41653;SDS011;68687;52.030;7.110;2023-04-24T00:42:14;7.75;;;6.95;;
41653;SDS011;68687;52.030;7.110;2023-04-24T00:44:40;13.20;;;8.90;;
41653;SDS011;68687;52.030;7.110;2023-04-24T00:47:05;11.02;;;9.23;;
41653;SDS011;68687;52.030;7.110;2023-04-24T00:49:32;13.65;;;9.18;;
41653;SDS011;68687;52.030;7.110;2023-04-24T00:52:03;11.13;;;9.57;;
41653;SDS011;68687;52.030;7.110;2023-04-24T00:54:32;10.10;;;9.10;;
41653;SDS011;68687;52.030;7.110;2023-04-24T00:56:57;11.70;;;8.82;;
41653;SDS011;68687;52.030;7.110;2023-04-24T00:59:26;12.63;;;9.77;;
41653;SDS011;68687;52.030;7.110;2023-04-24T01:01:58;11.27;;;9.43;;
41653;SDS011;68687;52.030;7.110;2023-04-24T01:04:23;13.80;;;10.23;;
41653;SDS011;68687;52.030;7.110;2023-04-24T01:06:52;11.10;;;9.35;;
41653;SDS011;68687;52.030;7.110;2023-04-24T01:09:19;17.40;;;10.55;;
41653;SDS011;68687;52.030;7.110;2023-04-24T01:11:48;12.40;;;9.50;;
41653;SDS011;68687;52.030;7.110;2023-04-24T01:14:13;13.90;;;9.63;;
41653;SDS011;68687;52.030;7.110;2023-04-24T01:16:38;12.52;;;9.15;;
41653;SDS011;68687;52.030;7.110;2023-04-24T01:19:05;13.40;;;8.93;;
41653;SDS011;68687;52.030;7.110;2023-04-24T01:21:35;12.98;;;9.65;;
41653;SDS011;68687;52.030;7.110;2023-04-24T01:24:02;13.95;;;10.10;;
41653;SDS011;68687;52.030;7.110;2023-04-24T01:26:29;13.60;;;10.65;;
41653;SDS011;68687;52.030;7.110;2023-04-24T01:28:54;15.52;;;10.98;;
41653;SDS011;68687;52.030;7.110;2023-04-24T01:31:20;19.67;;;11.60;;
41653;SDS011;68687;52.030;7.110;2023-04-24T01:33:46;18.75;;;11.32;;
41653;SDS011;68687;52.030;7.110;2023-04-24T01:36:12;14.95;;;10.73;;
41653;SDS011;68687;52.030;7.110;2023-04-24T01:38:38;16.95;;;11.30;;
41653;SDS011;68687;52.030;7.110;2023-04-24T01:41:07;14.70;;;10.73;;
41653;SDS011;68687;52.030;7.110;2023-04-24T01:43:32;14.68;;;11.05;;
41653;SDS011;68687;52.030;7.110;2023-04-24T01:45:57;15.55;;;10.52;;
41653;SDS011;68687;52.030;7.110;2023-04-24T01:48:23;15.73;;;10.63;;
41653;SDS011;68687;52.030;7.110;2023-04-24T01:50:48;14.50;;;10.65;;
41653;SDS011;68687;52.030;7.110;2023-04-24T01:53:14;14.00;;;11.07;;
41653;SDS011;68687;52.030;7.110;2023-04-24T01:55:40;15.55;;;11.20;;
41653;SDS011;68687;52.030;7.110;2023-04-24T01:58:06;15.80;;;11.77;;
41653;SDS011;68687;52.030;7.110;2023-04-24T02:00:31;13.80;;;9.98;;
41653;SDS011;68687;52.030;7.110;2023-04-24T02:02:57;14.95;;;11.05;;
41653;SDS011;68687;52.030;7.110;2023-04-24T02:05:22;16.67;;;11.55;;
41653;SDS011;68687;52.030;7.110;2023-04-24T02:07:47;18.65;;;12.77;;
41653;SDS011;68687;52.030;7.110;2023-04-24T02:10:16;19.17;;;12.10;;
41653;SDS011;68687;52.030;7.110;2023-04-24T02:12:44;20.48;;;12.25;;
41653;SDS011;68687;52.030;7.110;2023-04-24T02:15:10;15.55;;;11.60;;
41653;SDS011;68687;52.030;7.110;2023-04-24T02:17:35;15.85;;;11.88;;
41653;SDS011;68687;52.030;7.110;2023-04-24T02:20:07;14.85;;;11.98;;
41653;SDS011;68687;52.030;7.110;2023-04-24T02:22:32;14.85;;;11.52;;
41653;SDS011;68687;52.030;7.110;2023-04-24T02:25:01;16.38;;;12.07;;
41653;SDS011;68687;52.030;7.110;2023-04-24T02:27:27;19.88;;;12.32;;
41653;SDS011;68687;52.030;7.110;2023-04-24T02:29:55;16.58;;;12.63;;
41653;SDS011;68687;52.030;7.110;2023-04-24T02:32:20;22.02;;;13.50;;
41653;SDS011;68687;52.030;7.110;2023-04-24T02:34:46;23.45;;;14.98;;
41653;SDS011;68687;52.030;7.110;2023-04-24T02:37:11;23.63;;;14.35;;
41653;SDS011;68687;52.030;7.110;2023-04-24T02:39:45;19.63;;;13.50;;
41653;SDS011;68687;52.030;7.110;2023-04-24T02:42:17;23.48;;;13.77;;
41653;SDS011;68687;52.030;7.110;2023-04-24T02:44:42;24.17;;;14.60;;
41653;SDS011;68687;52.030;7.110;2023-04-24T02:47:07;24.75;;;14.35;;
41653;SDS011;68687;52.030;7.110;2023-04-24T02:49:39;23.63;;;15.65;;
41653;SDS011;68687;52.030;7.110;2023-04-24T02:52:04;25.88;;;15.88;;
41653;SDS011;68687;52.030;7.110;2023-04-24T02:54:33;29.27;;;15.05;;
41653;SDS011;68687;52.030;7.110;2023-04-24T02:56:58;26.02;;;16.52;;
41653;SDS011;68687;52.030;7.110;2023-04-24T02:59:23;32.25;;;17.05;;
41653;SDS011;68687;52.030;7.110;2023-04-24T03:01:49;24.80;;;16.90;;
41653;SDS011;68687;52.030;7.110;2023-04-24T03:04:14;24.17;;;16.33;;
41653;SDS011;68687;52.030;7.110;2023-04-24T03:06:40;27.90;;;17.40;;
41653;SDS011;68687;52.030;7.110;2023-04-24T03:09:05;30.02;;;17.25;;
41653;SDS011;68687;52.030;7.110;2023-04-24T03:11:31;23.98;;;16.83;;
41653;SDS011;68687;52.030;7.110;2023-04-24T03:13:56;27.63;;;18.15;;
41653;SDS011;68687;52.030;7.110;2023-04-24T03:16:21;29.00;;;18.65;;
41653;SDS011;68687;52.030;7.110;2023-04-24T03:18:50;33.47;;;19.35;;
41653;SDS011;68687;52.030;7.110;2023-04-24T03:21:15;28.88;;;19.27;;
41653;SDS011;68687;52.030;7.110;2023-04-24T03:23:43;29.20;;;18.55;;
41653;SDS011;68687;52.030;7.110;2023-04-24T03:26:08;32.00;;;19.95;;
41653;SDS011;68687;52.030;7.110;2023-04-24T03:28:33;37.10;;;18.90;;
41653;SDS011;68687;52.030;7.110;2023-04-24T03:30:59;40.80;;;21.00;;
41653;SDS011;68687;52.030;7.110;2023-04-24T03:33:27;34.85;;;21.08;;
41653;SDS011;68687;52.030;7.110;2023-04-24T03:35:55;35.90;;;20.63;;
41653;SDS011;68687;52.030;7.110;2023-04-24T03:38:24;38.75;;;21.35;;
41653;SDS011;68687;52.030;7.110;2023-04-24T03:40:49;37.72;;;21.10;;
41653;SDS011;68687;52.030;7.110;2023-04-24T03:43:14;40.10;;;21.30;;
41653;SDS011;68687;52.030;7.110;2023-04-24T03:45:40;37.95;;;23.40;;
41653;SDS011;68687;52.030;7.110;2023-04-24T03:48:05;35.50;;;21.08;;
41653;SDS011;68687;52.030;7.110;2023-04-24T03:50:30;38.13;;;21.30;;
41653;SDS011;68687;52.030;7.110;2023-04-24T03:52:55;39.78;;;23.02;;
41653;SDS011;68687;52.030;7.110;2023-04-24T03:55:24;34.83;;;21.70;;
41653;SDS011;68687;52.030;7.110;2023-04-24T03:57:49;38.72;;;23.40;;
41653;SDS011;68687;52.030;7.110;2023-04-24T04:00:18;38.85;;;21.05;;
41653;SDS011;68687;52.030;7.110;2023-04-24T04:02:43;41.33;;;22.25;;
41653;SDS011;68687;52.030;7.110;2023-04-24T04:05:09;40.17;;;23.33;;
41653;SDS011;68687;52.030;7.110;2023-04-24T04:07:34;39.45;;;23.50;;
41653;SDS011;68687;52.030;7.110;2023-04-24T04:09:59;45.55;;;23.52;;
41653;SDS011;68687;52.030;7.110;2023-04-24T04:12:25;43.47;;;23.98;;
41653;SDS011;68687;52.030;7.110;2023-04-24T04:14:50;37.63;;;23.48;;
41653;SDS011;68687;52.030;7.110;2023-04-24T04:17:18;38.90;;;24.02;;
41653;SDS011;68687;52.030;7.110;2023-04-24T04:19:44;41.13;;;24.92;;
41653;SDS011;68687;52.030;7.110;2023-04-24T04:22:09;45.75;;;26.90;;
41653;SDS011;68687;52.030;7.110;2023-04-24T04:24:34;45.95;;;26.95;;
41653;SDS011;68687;52.030;7.110;2023-04-24T04:27:06;42.00;;;26.15;;
41653;SDS011;68687;52.030;7.110;2023-04-24T04:29:31;46.25;;;27.05;;
41653;SDS011;68687;52.030;7.110;2023-04-24T04:31:57;40.33;;;26.65;;
41653;SDS011;68687;52.030;7.110;2023-04-24T04:34:23;41.30;;;25.08;;
41653;SDS011;68687;52.030;7.110;2023-04-24T04:36:54;46.78;;;25.63;;
41653;SDS011;68687;52.030;7.110;2023-04-24T04:39:20;46.25;;;25.20;;
41653;SDS011;68687;52.030;7.110;2023-04-24T04:41:45;48.67;;;26.13;;
41653;SDS011;68687;52.030;7.110;2023-04-24T04:44:13;42.60;;;24.52;;
41653;SDS011;68687;52.030;7.110;2023-04-24T04:46:39;42.63;;;25.17;;
41653;SDS011;68687;52.030;7.110;2023-04-24T04:49:09;48.40;;;26.40;;
41653;SDS011;68687;52.030;7.110;2023-04-24T04:51:35;46.35;;;26.65;;
41653;SDS011;68687;52.030;7.110;2023-04-24T04:54:07;48.47;;;24.63;;
41653;SDS011;68687;52.030;7.110;2023-04-24T04:56:32;53.63;;;27.30;;
41653;SDS011;68687;52.030;7.110;2023-04-24T04:59:07;46.60;;;25.98;;
41653;SDS011;68687;52.030;7.110;2023-04-24T05:01:32;49.50;;;26.08;;
41653;SDS011;68687;52.030;7.110;2023-04-24T05:03:57;49.33;;;25.77;;
41653;SDS011;68687;52.030;7.110;2023-04-24T05:06:23;46.60;;;25.88;;
41653;SDS011;68687;52.030;7.110;2023-04-24T05:08:48;48.40;;;25.58;;
41653;SDS011;68687;52.030;7.110;2023-04-24T05:11:13;47.50;;;25.67;;
41653;SDS011;68687;52.030;7.110;2023-04-24T05:13:39;46.58;;;25.95;;
41653;SDS011;68687;52.030;7.110;2023-04-24T05:16:05;46.95;;;26.23;;
41653;SDS011;68687;52.030;7.110;2023-04-24T05:18:30;43.00;;;25.70;;
41653;SDS011;68687;52.030;7.110;2023-04-24T05:20:55;51.97;;;26.13;;
41653;SDS011;68687;52.030;7.110;2023-04-24T05:23:24;49.90;;;26.20;;
41653;SDS011;68687;52.030;7.110;2023-04-24T05:25:49;38.53;;;23.92;;
41653;SDS011;68687;52.030;7.110;2023-04-24T05:28:20;43.20;;;22.55;;
41653;SDS011;68687;52.030;7.110;2023-04-24T05:30:46;42.00;;;24.17;;
41653;SDS011;68687;52.030;7.110;2023-04-24T05:33:11;43.40;;;23.85;;
41653;SDS011;68687;52.030;7.110;2023-04-24T05:35:36;39.22;;;23.30;;
41653;SDS011;68687;52.030;7.110;2023-04-24T05:38:05;41.88;;;22.73;;
41653;SDS011;68687;52.030;7.110;2023-04-24T05:40:30;41.67;;;22.63;;
41653;SDS011;68687;52.030;7.110;2023-04-24T05:42:58;42.85;;;23.50;;
41653;SDS011;68687;52.030;7.110;2023-04-24T05:45:23;43.13;;;23.73;;
41653;SDS011;68687;52.030;7.110;2023-04-24T05:47:49;39.40;;;23.25;;
41653;SDS011;68687;52.030;7.110;2023-04-24T05:50:20;46.30;;;23.08;;
41653;SDS011;68687;52.030;7.110;2023-04-24T05:52:51;38.70;;;21.15;;
41653;SDS011;68687;52.030;7.110;2023-04-24T05:55:17;42.97;;;22.60;;
41653;SDS011;68687;52.030;7.110;2023-04-24T05:57:43;35.30;;;22.70;;
41653;SDS011;68687;52.030;7.110;2023-04-24T06:00:09;35.70;;;21.23;;
41653;SDS011;68687;52.030;7.110;2023-04-24T06:02:37;35.88;;;21.95;;
41653;SDS011;68687;52.030;7.110;2023-04-24T06:05:05;40.92;;;21.60;;
41653;SDS011;68687;52.030;7.110;2023-04-24T06:07:33;39.33;;;22.35;;
41653;SDS011;68687;52.030;7.110;2023-04-24T06:09:59;40.30;;;22.13;;
41653;SDS011;68687;52.030;7.110;2023-04-24T06:12:27;44.05;;;21.92;;
41653;SDS011;68687;52.030;7.110;2023-04-24T06:14:53;37.45;;;22.50;;
41653;SDS011;68687;52.030;7.110;2023-04-24T06:17:20;32.47;;;19.83;;
41653;SDS011;68687;52.030;7.110;2023-04-24T06:19:45;36.53;;;20.58;;
41653;SDS011;68687;52.030;7.110;2023-04-24T06:22:10;40.22;;;21.55;;
41653;SDS011;68687;52.030;7.110;2023-04-24T06:24:36;34.83;;;20.30;;
41653;SDS011;68687;52.030;7.110;2023-04-24T06:27:04;34.70;;;19.33;;
41653;SDS011;68687;52.030;7.110;2023-04-24T06:29:29;28.45;;;18.48;;
41653;SDS011;68687;52.030;7.110;2023-04-24T06:31:55;26.20;;;18.33;;
41653;SDS011;68687;52.030;7.110;2023-04-24T06:34:23;32.90;;;18.98;;
41653;SDS011;68687;52.030;7.110;2023-04-24T06:36:48;27.80;;;17.15;;
41653;SDS011;68687;52.030;7.110;2023-04-24T06:39:14;24.05;;;16.92;;
41653;SDS011;68687;52.030;7.110;2023-04-24T06:41:39;27.77;;;18.02;;
41653;SDS011;68687;52.030;7.110;2023-04-24T06:44:05;22.48;;;15.10;;
41653;SDS011;68687;52.030;7.110;2023-04-24T06:46:30;26.10;;;16.52;;
41653;SDS011;68687;52.030;7.110;2023-04-24T06:48:55;28.95;;;15.27;;
41653;SDS011;68687;52.030;7.110;2023-04-24T06:51:27;26.17;;;15.20;;
41653;SDS011;68687;52.030;7.110;2023-04-24T06:53:53;27.75;;;17.50;;
41653;SDS011;68687;52.030;7.110;2023-04-24T06:56:18;24.10;;;15.63;;
41653;SDS011;68687;52.030;7.110;2023-04-24T06:58:45;25.75;;;15.93;;
41653;SDS011;68687;52.030;7.110;2023-04-24T07:01:16;23.95;;;15.95;;
41653;SDS011;68687;52.030;7.110;2023-04-24T07:03:42;20.90;;;14.05;;
41653;SDS011;68687;52.030;7.110;2023-04-24T07:06:07;22.67;;;15.35;;
41653;SDS011;68687;52.030;7.110;2023-04-24T07:08:35;20.05;;;13.38;;
41653;SDS011;68687;52.030;7.110;2023-04-24T07:11:00;25.20;;;15.18;;
41653;SDS011;68687;52.030;7.110;2023-04-24T07:13:26;23.45;;;14.90;;
41653;SDS011;68687;52.030;7.110;2023-04-24T07:15:55;21.13;;;14.18;;
41653;SDS011;68687;52.030;7.110;2023-04-24T07:18:24;20.13;;;14.20;;
41653;SDS011;68687;52.030;7.110;2023-04-24T07:20:49;25.90;;;14.98;;
41653;SDS011;68687;52.030;7.110;2023-04-24T07:23:17;19.88;;;12.75;;
41653;SDS011;68687;52.030;7.110;2023-04-24T07:25:43;21.52;;;13.95;;
41653;SDS011;68687;52.030;7.110;2023-04-24T07:28:09;26.60;;;13.98;;
41653;SDS011;68687;52.030;7.110;2023-04-24T07:30:34;19.55;;;12.93;;
41653;SDS011;68687;52.030;7.110;2023-04-24T07:32:59;21.25;;;12.93;;
41653;SDS011;68687;52.030;7.110;2023-04-24T07:35:28;21.05;;;12.80;;
41653;SDS011;68687;52.030;7.110;2023-04-24T07:37:53;16.60;;;12.00;;
41653;SDS011;68687;52.030;7.110;2023-04-24T07:40:19;21.00;;;13.10;;
41653;SDS011;68687;52.030;7.110;2023-04-24T07:42:44;19.60;;;13.45;;
41653;SDS011;68687;52.030;7.110;2023-04-24T07:45:09;16.85;;;12.50;;
41653;SDS011;68687;52.030;7.110;2023-04-24T07:47:35;16.42;;;11.73;;
41653;SDS011;68687;52.030;7.110;2023-04-24T07:50:07;17.17;;;11.80;;
41653;SDS011;68687;52.030;7.110;2023-04-24T07:52:33;18.05;;;11.98;;
41653;SDS011;68687;52.030;7.110;2023-04-24T07:54:59;18.98;;;12.38;;
41653;SDS011;68687;52.030;7.110;2023-04-24T07:57:31;19.10;;;12.40;;
41653;SDS011;68687;52.030;7.110;2023-04-24T08:00:05;18.25;;;11.77;;
41653;SDS011;68687;52.030;7.110;2023-04-24T08:02:31;16.00;;;11.77;;
41653;SDS011;68687;52.030;7.110;2023-04-24T08:04:59;20.42;;;12.10;;
41653;SDS011;68687;52.030;7.110;2023-04-24T08:07:27;19.50;;;12.15;;
41653;SDS011;68687;52.030;7.110;2023-04-24T08:09:56;15.98;;;11.77;;
41653;SDS011;68687;52.030;7.110;2023-04-24T08:12:21;14.90;;;12.65;;
41653;SDS011;68687;52.030;7.110;2023-04-24T08:14:52;15.20;;;11.63;;
41653;SDS011;68687;52.030;7.110;2023-04-24T08:17:18;16.67;;;11.15;;
41653;SDS011;68687;52.030;7.110;2023-04-24T08:19:43;20.58;;;10.90;;
41653;SDS011;68687;52.030;7.110;2023-04-24T08:22:13;15.02;;;10.73;;
41653;SDS011;68687;52.030;7.110;2023-04-24T08:24:38;19.52;;;11.43;;
41653;SDS011;68687;52.030;7.110;2023-04-24T08:27:06;23.08;;;14.40;;
41653;SDS011;68687;52.030;7.110;2023-04-24T08:29:31;15.68;;;12.02;;
41653;SDS011;68687;52.030;7.110;2023-04-24T08:31:57;17.13;;;11.68;;
41653;SDS011;68687;52.030;7.110;2023-04-24T08:34:22;15.40;;;9.93;;
41653;SDS011;68687;52.030;7.110;2023-04-24T08:36:48;13.90;;;9.93;;
41653;SDS011;68687;52.030;7.110;2023-04-24T08:39:14;16.05;;;10.15;;
41653;SDS011;68687;52.030;7.110;2023-04-24T08:41:41;13.60;;;10.13;;
41653;SDS011;68687;52.030;7.110;2023-04-24T08:44:08;13.77;;;10.65;;
41653;SDS011;68687;52.030;7.110;2023-04-24T08:46:34;16.83;;;10.43;;
41653;SDS011;68687;52.030;7.110;2023-04-24T08:49:00;17.23;;;10.88;;
41653;SDS011;68687;52.030;7.110;2023-04-24T08:51:27;14.45;;;9.48;;
41653;SDS011;68687;52.030;7.110;2023-04-24T08:53:59;12.57;;;8.85;;
41653;SDS011;68687;52.030;7.110;2023-04-24T08:56:25;15.07;;;9.63;;
41653;SDS011;68687;52.030;7.110;2023-04-24T08:58:52;12.40;;;9.32;;
41653;SDS011;68687;52.030;7.110;2023-04-24T09:01:25;11.38;;;8.45;;
41653;SDS011;68687;52.030;7.110;2023-04-24T09:03:51;11.55;;;8.50;;
41653;SDS011;68687;52.030;7.110;2023-04-24T09:06:19;12.85;;;8.60;;
41653;SDS011;68687;52.030;7.110;2023-04-24T09:08:46;11.50;;;8.25;;
41653;SDS011;68687;52.030;7.110;2023-04-24T09:11:15;14.10;;;8.63;;
41653;SDS011;68687;52.030;7.110;2023-04-24T09:13:41;11.40;;;7.65;;
41653;SDS011;68687;52.030;7.110;2023-04-24T09:16:08;13.45;;;8.93;;
41653;SDS011;68687;52.030;7.110;2023-04-24T09:18:33;10.90;;;8.32;;
41653;SDS011;68687;52.030;7.110;2023-04-24T09:21:04;9.90;;;6.97;;
41653;SDS011;68687;52.030;7.110;2023-04-24T09:23:32;11.73;;;7.88;;
41653;SDS011;68687;52.030;7.110;2023-04-24T09:25:59;9.45;;;7.43;;
41653;SDS011;68687;52.030;7.110;2023-04-24T09:28:26;11.02;;;7.65;;
41653;SDS011;68687;52.030;7.110;2023-04-24T09:33:37;9.20;;;7.28;;
41653;SDS011;68687;52.030;7.110;2023-04-24T09:36:06;15.65;;;8.48;;
41653;SDS011;68687;52.030;7.110;2023-04-24T09:38:35;11.85;;;7.18;;
41653;SDS011;68687;52.030;7.110;2023-04-24T09:41:06;11.80;;;7.38;;
41653;SDS011;68687;52.030;7.110;2023-04-24T09:43:32;11.77;;;7.65;;
41653;SDS011;68687;52.030;7.110;2023-04-24T09:45:59;8.88;;;6.65;;
41653;SDS011;68687;52.030;7.110;2023-04-24T09:48:32;9.90;;;7.03;;
41653;SDS011;68687;52.030;7.110;2023-04-24T09:51:00;22.33;;;11.70;;
41653;SDS011;68687;52.030;7.110;2023-04-24T09:53:26;10.25;;;7.22;;
41653;SDS011;68687;52.030;7.110;2023-04-24T09:56:08;12.57;;;8.02;;
41653;SDS011;68687;52.030;7.110;2023-04-24T09:58:38;12.48;;;9.27;;
41653;SDS011;68687;52.030;7.110;2023-04-24T10:01:04;16.92;;;9.98;;
41653;SDS011;68687;52.030;7.110;2023-04-24T10:03:39;17.75;;;10.38;;
41653;SDS011;68687;52.030;7.110;2023-04-24T10:06:07;18.38;;;10.00;;
41653;SDS011;68687;52.030;7.110;2023-04-24T10:08:38;18.00;;;11.43;;
41653;SDS011;68687;52.030;7.110;2023-04-24T10:11:04;18.10;;;11.63;;
41653;SDS011;68687;52.030;7.110;2023-04-24T10:13:29;14.82;;;11.18;;
41653;SDS011;68687;52.030;7.110;2023-04-24T10:15:55;16.08;;;11.48;;
41653;SDS011;68687;52.030;7.110;2023-04-24T10:18:21;18.65;;;11.48;;
41653;SDS011;68687;52.030;7.110;2023-04-24T10:20:49;19.80;;;11.57;;
41653;SDS011;68687;52.030;7.110;2023-04-24T10:23:18;16.83;;;11.02;;
41653;SDS011;68687;52.030;7.110;2023-04-24T10:25:44;18.88;;;11.90;;
41653;SDS011;68687;52.030;7.110;2023-04-24T10:28:10;19.83;;;11.30;;
41653;SDS011;68687;52.030;7.110;2023-04-24T10:30:38;19.63;;;11.07;;
41653;SDS011;68687;52.030;7.110;2023-04-24T10:33:07;20.85;;;10.73;;
41653;SDS011;68687;52.030;7.110;2023-04-24T10:35:34;15.75;;;10.27;;
41653;SDS011;68687;52.030;7.110;2023-04-24T10:38:12;17.17;;;10.35;;
41653;SDS011;68687;52.030;7.110;2023-04-24T10:40:42;16.23;;;10.07;;
41653;SDS011;68687;52.030;7.110;2023-04-24T10:43:08;14.90;;;10.18;;
41653;SDS011;68687;52.030;7.110;2023-04-24T10:45:37;19.70;;;11.50;;
41653;SDS011;68687;52.030;7.110;2023-04-24T10:48:09;15.68;;;10.60;;
41653;SDS011;68687;52.030;7.110;2023-04-24T10:50:52;17.13;;;11.20;;
41653;SDS011;68687;52.030;7.110;2023-04-24T10:53:22;26.65;;;15.20;;
41653;SDS011;68687;52.030;7.110;2023-04-24T10:56:02;12.55;;;8.45;;
41653;SDS011;68687;52.030;7.110;2023-04-24T10:58:37;16.95;;;8.90;;
41653;SDS011;68687;52.030;7.110;2023-04-24T11:01:23;14.25;;;9.15;;
41653;SDS011;68687;52.030;7.110;2023-04-24T11:03:50;8.95;;;7.57;;
41653;SDS011;68687;52.030;7.110;2023-04-24T11:06:33;12.10;;;8.30;;
41653;SDS011;68687;52.030;7.110;2023-04-24T11:09:11;11.57;;;8.18;;
41653;SDS011;68687;52.030;7.110;2023-04-24T11:11:44;8.70;;;6.35;;
41653;SDS011;68687;52.030;7.110;2023-04-24T11:14:13;16.33;;;6.53;;
41653;SDS011;68687;52.030;7.110;2023-04-24T11:16:44;13.40;;;7.18;;
41653;SDS011;68687;52.030;7.110;2023-04-24T11:21:39;11.60;;;5.88;;
41653;SDS011;68687;52.030;7.110;2023-04-24T11:26:57;17.83;;;7.47;;
41653;SDS011;68687;52.030;7.110;2023-04-24T11:35:05;24.70;;;7.68;;
41653;SDS011;68687;52.030;7.110;2023-04-24T11:37:38;14.68;;;7.97;;
41653;SDS011;68687;52.030;7.110;2023-04-24T11:40:06;21.08;;;8.75;;
41653;SDS011;68687;52.030;7.110;2023-04-24T11:42:34;15.10;;;8.15;;
41653;SDS011;68687;52.030;7.110;2023-04-24T11:45:00;13.82;;;8.05;;
41653;SDS011;68687;52.030;7.110;2023-04-24T11:47:32;22.88;;;9.57;;
41653;SDS011;68687;52.030;7.110;2023-04-24T11:50:01;19.97;;;9.33;;
41653;SDS011;68687;52.030;7.110;2023-04-24T11:52:29;22.15;;;9.95;;
41653;SDS011;68687;52.030;7.110;2023-04-24T11:54:55;19.67;;;8.75;;
41653;SDS011;68687;52.030;7.110;2023-04-24T11:57:21;25.80;;;9.35;;
41653;SDS011;68687;52.030;7.110;2023-04-24T11:59:51;20.35;;;8.10;;
41653;SDS011;68687;52.030;7.110;2023-04-24T12:02:23;18.48;;;8.30;;
41653;SDS011;68687;52.030;7.110;2023-04-24T12:04:50;13.10;;;7.93;;
41653;SDS011;68687;52.030;7.110;2023-04-24T12:07:19;13.88;;;9.07;;
41653;SDS011;68687;52.030;7.110;2023-04-24T12:09:48;15.45;;;8.48;;
41653;SDS011;68687;52.030;7.110;2023-04-24T12:12:23;17.35;;;7.95;;
41653;SDS011;68687;52.030;7.110;2023-04-24T12:14:56;20.58;;;9.45;;
41653;SDS011;68687;52.030;7.110;2023-04-24T12:17:30;27.13;;;8.15;;
41653;SDS011;68687;52.030;7.110;2023-04-24T12:19:57;20.42;;;7.68;;
41653;SDS011;68687;52.030;7.110;2023-04-24T12:22:46;15.55;;;7.28;;
41653;SDS011;68687;52.030;7.110;2023-04-24T12:25:15;18.02;;;8.45;;
41653;SDS011;68687;52.030;7.110;2023-04-24T12:27:42;20.35;;;7.40;;
41653;SDS011;68687;52.030;7.110;2023-04-24T12:30:27;15.25;;;7.68;;
41653;SDS011;68687;52.030;7.110;2023-04-24T12:32:54;11.40;;;7.15;;
41653;SDS011;68687;52.030;7.110;2023-04-24T12:35:20;10.07;;;6.75;;
41653;SDS011;68687;52.030;7.110;2023-04-24T12:37:47;16.55;;;7.13;;
41653;SDS011;68687;52.030;7.110;2023-04-24T12:40:13;15.35;;;7.18;;
41653;SDS011;68687;52.030;7.110;2023-04-24T12:42:43;11.70;;;6.70;;
41653;SDS011;68687;52.030;7.110;2023-04-24T12:45:13;13.57;;;6.70;;
41653;SDS011;68687;52.030;7.110;2023-04-24T12:47:39;14.45;;;6.18;;
41653;SDS011;68687;52.030;7.110;2023-04-24T12:50:06;10.02;;;5.82;;
41653;SDS011;68687;52.030;7.110;2023-04-24T12:52:35;15.20;;;6.10;;
41653;SDS011;68687;52.030;7.110;2023-04-24T12:55:01;14.75;;;7.55;;
41653;SDS011;68687;52.030;7.110;2023-04-24T12:57:28;10.77;;;6.07;;
41653;SDS011;68687;52.030;7.110;2023-04-24T12:59:54;12.38;;;5.95;;
41653;SDS011;68687;52.030;7.110;2023-04-24T13:02:24;18.58;;;6.15;;
41653;SDS011;68687;52.030;7.110;2023-04-24T13:04:50;12.57;;;6.45;;
41653;SDS011;68687;52.030;7.110;2023-04-24T13:07:16;12.65;;;6.32;;
41653;SDS011;68687;52.030;7.110;2023-04-24T13:09:42;11.65;;;5.60;;
41653;SDS011;68687;52.030;7.110;2023-04-24T13:12:08;13.43;;;6.13;;
41653;SDS011;68687;52.030;7.110;2023-04-24T13:14:37;10.18;;;5.50;;
41653;SDS011;68687;52.030;7.110;2023-04-24T13:17:03;8.95;;;5.32;;
41653;SDS011;68687;52.030;7.110;2023-04-24T13:19:35;16.75;;;5.45;;
41653;SDS011;68687;52.030;7.110;2023-04-24T13:22:19;16.30;;;6.03;;
41653;SDS011;68687;52.030;7.110;2023-04-24T13:24:48;9.52;;;4.35;;
41653;SDS011;68687;52.030;7.110;2023-04-24T13:27:14;7.68;;;4.70;;
41653;SDS011;68687;52.030;7.110;2023-04-24T13:29:39;10.13;;;4.63;;
41653;SDS011;68687;52.030;7.110;2023-04-24T13:32:05;7.93;;;4.40;;
41653;SDS011;68687;52.030;7.110;2023-04-24T13:34:34;5.20;;;4.25;;
41653;SDS011;68687;52.030;7.110;2023-04-24T13:37:00;5.93;;;4.50;;
41653;SDS011;68687;52.030;7.110;2023-04-24T13:39:26;5.05;;;3.60;;
41653;SDS011;68687;52.030;7.110;2023-04-24T13:41:51;8.13;;;4.38;;
41653;SDS011;68687;52.030;7.110;2023-04-24T13:44:20;5.85;;;4.40;;
41653;SDS011;68687;52.030;7.110;2023-04-24T13:46:50;7.93;;;3.97;;
41653;SDS011;68687;52.030;7.110;2023-04-24T13:49:18;5.32;;;3.78;;
41653;SDS011;68687;52.030;7.110;2023-04-24T13:51:45;6.20;;;3.60;;
41653;SDS011;68687;52.030;7.110;2023-04-24T13:54:10;4.38;;;3.67;;
41653;SDS011;68687;52.030;7.110;2023-04-24T13:56:36;6.72;;;4.28;;
41653;SDS011;68687;52.030;7.110;2023-04-24T13:59:04;3.80;;;3.47;;
41653;SDS011;68687;52.030;7.110;2023-04-24T14:01:30;5.55;;;3.33;;
41653;SDS011;68687;52.030;7.110;2023-04-24T14:03:55;9.20;;;3.72;;
41653;SDS011;68687;52.030;7.110;2023-04-24T14:06:24;4.88;;;3.50;;
41653;SDS011;68687;52.030;7.110;2023-04-24T14:08:50;5.70;;;3.40;;
41653;SDS011;68687;52.030;7.110;2023-04-24T14:11:15;5.80;;;3.67;;
41653;SDS011;68687;52.030;7.110;2023-04-24T14:13:41;4.82;;;3.20;;
41653;SDS011;68687;52.030;7.110;2023-04-24T14:16:07;7.63;;;3.65;;
41653;SDS011;68687;52.030;7.110;2023-04-24T14:18:32;9.38;;;4.15;;
41653;SDS011;68687;52.030;7.110;2023-04-24T14:20:58;4.25;;;3.78;;
41653;SDS011;68687;52.030;7.110;2023-04-24T14:23:28;16.48;;;7.82;;
41653;SDS011;68687;52.030;7.110;2023-04-24T14:25:56;7.07;;;4.20;;
41653;SDS011;68687;52.030;7.110;2023-04-24T14:28:25;19.10;;;9.73;;
41653;SDS011;68687;52.030;7.110;2023-04-24T14:30:57;6.70;;;4.32;;
41653;SDS011;68687;52.030;7.110;2023-04-24T14:33:22;5.45;;;3.63;;
41653;SDS011;68687;52.030;7.110;2023-04-24T14:35:47;5.68;;;3.50;;
41653;SDS011;68687;52.030;7.110;2023-04-24T14:38:19;10.60;;;4.28;;
41653;SDS011;68687;52.030;7.110;2023-04-24T14:40:44;5.63;;;3.45;;
41653;SDS011;68687;52.030;7.110;2023-04-24T14:43:10;6.13;;;3.50;;